Terminal Aerodrome Forecast
Issued by NWS

Home | Current Version | Previous Version | Text Only | Print | Product List | Glossary On
Versions: 1 2 3 4 5 6 7 8 9 10 11 12 13 14 15 16 17
000
FTAK31 PAJN 181700
TAFAGY
TAF
PAGY 181721Z 1818/1918 04015G30KT P6SM BKN100
     FM190000 04016G31KT P6SM OVC050
     FM190600 04012G24KT 6SM -SNRA BKN035 OVC060
     FM191300 04012G21KT P6SM VCSH BKN035 OVC050
      AMD LTD TO CLD VIS AND WIND=

USA.gov is the U.S. government's official web portal to all federal, state and local government web resources and services.